sensor_id;sensor_type;location;lat;lon;timestamp;pressure;altitude;pressure_sealevel;temperature;humidity
41684;BME280;27369;52.030;4.586;2023-04-21T00:00:12;-20807.34;;;-144.41;100.00
41684;BME280;27369;52.030;4.586;2023-04-21T00:02:37;-20807.34;;;-144.41;100.00
41684;BME280;27369;52.030;4.586;2023-04-21T00:05:08;-20807.34;;;-144.41;100.00
41684;BME280;27369;52.030;4.586;2023-04-21T00:07:35;-20807.34;;;-144.41;100.00
41684;BME280;27369;52.030;4.586;2023-04-21T00:10:04;-20807.34;;;-144.41;100.00
41684;BME280;27369;52.030;4.586;2023-04-21T00:12:29;-20807.34;;;-144.41;100.00
41684;BME280;27369;52.030;4.586;2023-04-21T00:14:55;-20807.34;;;-144.41;100.00
41684;BME280;27369;52.030;4.586;2023-04-21T00:17:20;-20807.34;;;-144.41;100.00
41684;BME280;27369;52.030;4.586;2023-04-21T00:19:46;-20807.34;;;-144.41;100.00
41684;BME280;27369;52.030;4.586;2023-04-21T00:22:12;-20807.34;;;-144.41;100.00
41684;BME280;27369;52.030;4.586;2023-04-21T00:24:39;-20807.34;;;-144.41;100.00
41684;BME280;27369;52.030;4.586;2023-04-21T00:27:04;-20807.34;;;-144.41;100.00
41684;BME280;27369;52.030;4.586;2023-04-21T00:29:30;-20807.34;;;-144.41;100.00
41684;BME280;27369;52.030;4.586;2023-04-21T00:31:55;-20807.34;;;-144.41;100.00
41684;BME280;27369;52.030;4.586;2023-04-21T00:34:20;-20807.34;;;-144.41;100.00
41684;BME280;27369;52.030;4.586;2023-04-21T00:36:46;-20807.34;;;-144.41;100.00
41684;BME280;27369;52.030;4.586;2023-04-21T00:39:11;-20807.34;;;-144.41;100.00
41684;BME280;27369;52.030;4.586;2023-04-21T00:41:37;-20807.34;;;-144.41;100.00
41684;BME280;27369;52.030;4.586;2023-04-21T00:44:08;-20807.34;;;-144.41;100.00
41684;BME280;27369;52.030;4.586;2023-04-21T00:46:35;-20807.34;;;-144.41;100.00
41684;BME280;27369;52.030;4.586;2023-04-21T00:49:03;-20807.34;;;-144.41;100.00
41684;BME280;27369;52.030;4.586;2023-04-21T00:51:30;-20807.34;;;-144.41;100.00
41684;BME280;27369;52.030;4.586;2023-04-21T00:53:57;-20807.34;;;-144.41;100.00
41684;BME280;27369;52.030;4.586;2023-04-21T00:56:25;-20807.34;;;-144.41;100.00
41684;BME280;27369;52.030;4.586;2023-04-21T00:58:52;-20807.34;;;-144.41;100.00
41684;BME280;27369;52.030;4.586;2023-04-21T01:01:18;-20807.34;;;-144.41;100.00
41684;BME280;27369;52.030;4.586;2023-04-21T01:03:43;-20807.34;;;-144.41;100.00
41684;BME280;27369;52.030;4.586;2023-04-21T01:06:10;-20807.34;;;-144.41;100.00
41684;BME280;27369;52.030;4.586;2023-04-21T01:08:37;-20807.34;;;-144.41;100.00
41684;BME280;27369;52.030;4.586;2023-04-21T01:11:12;-20807.34;;;-144.41;100.00
41684;BME280;27369;52.030;4.586;2023-04-21T01:13:38;-20807.34;;;-144.41;100.00
41684;BME280;27369;52.030;4.586;2023-04-21T01:16:05;-20807.34;;;-144.41;100.00
41684;BME280;27369;52.030;4.586;2023-04-21T01:18:30;-20807.34;;;-144.41;100.00
41684;BME280;27369;52.030;4.586;2023-04-21T01:20:56;-20807.34;;;-144.41;100.00
41684;BME280;27369;52.030;4.586;2023-04-21T01:23:22;-20807.34;;;-144.41;100.00
41684;BME280;27369;52.030;4.586;2023-04-21T01:25:49;-20807.34;;;-144.41;100.00
41684;BME280;27369;52.030;4.586;2023-04-21T01:28:21;-20807.34;;;-144.41;100.00
41684;BME280;27369;52.030;4.586;2023-04-21T01:30:46;-20807.34;;;-144.41;100.00
41684;BME280;27369;52.030;4.586;2023-04-21T01:33:12;-20807.34;;;-144.41;100.00
41684;BME280;27369;52.030;4.586;2023-04-21T01:35:37;-20807.34;;;-144.41;100.00
41684;BME280;27369;52.030;4.586;2023-04-21T01:38:03;-20807.34;;;-144.41;100.00
41684;BME280;27369;52.030;4.586;2023-04-21T01:40:29;-20807.34;;;-144.41;100.00
41684;BME280;27369;52.030;4.586;2023-04-21T01:42:54;-20807.34;;;-144.41;100.00
41684;BME280;27369;52.030;4.586;2023-04-21T01:45:20;-20807.34;;;-144.41;100.00
41684;BME280;27369;52.030;4.586;2023-04-21T01:47:45;-20807.34;;;-144.41;100.00
41684;BME280;27369;52.030;4.586;2023-04-21T01:50:10;-20807.34;;;-144.41;100.00
41684;BME280;27369;52.030;4.586;2023-04-21T01:52:36;-20807.34;;;-144.41;100.00
41684;BME280;27369;52.030;4.586;2023-04-21T01:55:02;-20807.34;;;-144.41;100.00
41684;BME280;27369;52.030;4.586;2023-04-21T01:57:27;-20807.34;;;-144.41;100.00
41684;BME280;27369;52.030;4.586;2023-04-21T01:59:52;-20807.34;;;-144.41;100.00
41684;BME280;27369;52.030;4.586;2023-04-21T02:02:18;-20807.34;;;-144.41;100.00
41684;BME280;27369;52.030;4.586;2023-04-21T02:04:43;-20807.34;;;-144.41;100.00
41684;BME280;27369;52.030;4.586;2023-04-21T02:07:09;-20807.34;;;-144.41;100.00
41684;BME280;27369;52.030;4.586;2023-04-21T02:09:34;-20807.34;;;-144.41;100.00
41684;BME280;27369;52.030;4.586;2023-04-21T02:12:00;-20807.34;;;-144.41;100.00
41684;BME280;27369;52.030;4.586;2023-04-21T02:14:26;-20807.34;;;-144.41;100.00
41684;BME280;27369;52.030;4.586;2023-04-21T02:16:52;-20807.34;;;-144.41;100.00
41684;BME280;27369;52.030;4.586;2023-04-21T02:19:17;-20807.34;;;-144.41;100.00
41684;BME280;27369;52.030;4.586;2023-04-21T02:21:43;-20807.34;;;-144.41;100.00
41684;BME280;27369;52.030;4.586;2023-04-21T02:24:08;-20807.34;;;-144.41;100.00
41684;BME280;27369;52.030;4.586;2023-04-21T02:26:34;-20807.34;;;-144.41;100.00
41684;BME280;27369;52.030;4.586;2023-04-21T02:29:00;-20807.34;;;-144.41;100.00
41684;BME280;27369;52.030;4.586;2023-04-21T02:31:25;-20807.34;;;-144.41;100.00
41684;BME280;27369;52.030;4.586;2023-04-21T02:33:50;-20807.34;;;-144.41;100.00
41684;BME280;27369;52.030;4.586;2023-04-21T02:36:16;-20807.34;;;-144.41;100.00
41684;BME280;27369;52.030;4.586;2023-04-21T02:38:41;-20807.34;;;-144.41;100.00
41684;BME280;27369;52.030;4.586;2023-04-21T02:41:07;-20807.34;;;-144.41;100.00
41684;BME280;27369;52.030;4.586;2023-04-21T02:43:32;-20807.34;;;-144.41;100.00
41684;BME280;27369;52.030;4.586;2023-04-21T02:45:57;-20807.34;;;-144.41;100.00
41684;BME280;27369;52.030;4.586;2023-04-21T02:48:23;-20807.34;;;-144.41;100.00
41684;BME280;27369;52.030;4.586;2023-04-21T02:50:49;-20807.34;;;-144.41;100.00
41684;BME280;27369;52.030;4.586;2023-04-21T02:53:14;-20807.34;;;-144.41;100.00
41684;BME280;27369;52.030;4.586;2023-04-21T02:55:41;-20807.34;;;-144.41;100.00
41684;BME280;27369;52.030;4.586;2023-04-21T02:58:06;-20807.34;;;-144.41;100.00
41684;BME280;27369;52.030;4.586;2023-04-21T03:00:31;-20807.34;;;-144.41;100.00
41684;BME280;27369;52.030;4.586;2023-04-21T03:02:57;-20807.34;;;-144.41;100.00
41684;BME280;27369;52.030;4.586;2023-04-21T03:05:23;-20807.34;;;-144.41;100.00
41684;BME280;27369;52.030;4.586;2023-04-21T03:07:48;-20807.34;;;-144.41;100.00
41684;BME280;27369;52.030;4.586;2023-04-21T03:10:14;-20807.34;;;-144.41;100.00
41684;BME280;27369;52.030;4.586;2023-04-21T03:12:39;-20807.34;;;-144.41;100.00
41684;BME280;27369;52.030;4.586;2023-04-21T03:15:05;-20807.34;;;-144.41;100.00
41684;BME280;27369;52.030;4.586;2023-04-21T03:17:31;-20807.34;;;-144.41;100.00
41684;BME280;27369;52.030;4.586;2023-04-21T03:19:56;-20807.34;;;-144.41;100.00
41684;BME280;27369;52.030;4.586;2023-04-21T03:22:21;-20807.34;;;-144.41;100.00
41684;BME280;27369;52.030;4.586;2023-04-21T03:24:47;-20807.34;;;-144.41;100.00
41684;BME280;27369;52.030;4.586;2023-04-21T03:27:12;-20807.34;;;-144.41;100.00
41684;BME280;27369;52.030;4.586;2023-04-21T03:29:37;-20807.34;;;-144.41;100.00
41684;BME280;27369;52.030;4.586;2023-04-21T03:32:03;-20807.34;;;-144.41;100.00
41684;BME280;27369;52.030;4.586;2023-04-21T03:34:28;-20807.34;;;-144.41;100.00
41684;BME280;27369;52.030;4.586;2023-04-21T03:36:54;-20807.34;;;-144.41;100.00
41684;BME280;27369;52.030;4.586;2023-04-21T03:39:20;-20807.34;;;-144.41;100.00
41684;BME280;27369;52.030;4.586;2023-04-21T03:41:45;-20807.34;;;-144.41;100.00
41684;BME280;27369;52.030;4.586;2023-04-21T03:44:11;-20807.34;;;-144.41;100.00
41684;BME280;27369;52.030;4.586;2023-04-21T03:46:36;-20807.34;;;-144.41;100.00
41684;BME280;27369;52.030;4.586;2023-04-21T03:49:01;-20807.34;;;-144.41;100.00
41684;BME280;27369;52.030;4.586;2023-04-21T03:51:27;-20807.34;;;-144.41;100.00
41684;BME280;27369;52.030;4.586;2023-04-21T03:53:53;-20807.34;;;-144.41;100.00
41684;BME280;27369;52.030;4.586;2023-04-21T03:56:18;-20807.34;;;-144.41;100.00
41684;BME280;27369;52.030;4.586;2023-04-21T03:58:43;-20807.34;;;-144.41;100.00
41684;BME280;27369;52.030;4.586;2023-04-21T04:01:09;-20807.34;;;-144.41;100.00
41684;BME280;27369;52.030;4.586;2023-04-21T04:03:34;-20807.34;;;-144.41;100.00
41684;BME280;27369;52.030;4.586;2023-04-21T04:06:00;-20807.34;;;-144.41;100.00
41684;BME280;27369;52.030;4.586;2023-04-21T04:08:28;-20807.34;;;-144.41;100.00
41684;BME280;27369;52.030;4.586;2023-04-21T04:10:53;-20807.34;;;-144.41;100.00
41684;BME280;27369;52.030;4.586;2023-04-21T04:13:19;-20807.34;;;-144.41;100.00
41684;BME280;27369;52.030;4.586;2023-04-21T04:15:46;-20807.34;;;-144.41;100.00
41684;BME280;27369;52.030;4.586;2023-04-21T04:18:12;-20807.34;;;-144.41;100.00
41684;BME280;27369;52.030;4.586;2023-04-21T04:20:37;-20807.34;;;-144.41;100.00
41684;BME280;27369;52.030;4.586;2023-04-21T04:23:03;-20807.34;;;-144.41;100.00
41684;BME280;27369;52.030;4.586;2023-04-21T04:25:28;-20807.34;;;-144.41;100.00
41684;BME280;27369;52.030;4.586;2023-04-21T04:27:53;-20807.34;;;-144.41;100.00
41684;BME280;27369;52.030;4.586;2023-04-21T04:30:19;-20807.34;;;-144.41;100.00
41684;BME280;27369;52.030;4.586;2023-04-21T04:32:45;-20807.34;;;-144.41;100.00
41684;BME280;27369;52.030;4.586;2023-04-21T04:35:11;-20807.34;;;-144.41;100.00
41684;BME280;27369;52.030;4.586;2023-04-21T04:37:38;-20807.34;;;-144.41;100.00
41684;BME280;27369;52.030;4.586;2023-04-21T04:40:04;-20807.34;;;-144.41;100.00
41684;BME280;27369;52.030;4.586;2023-04-21T04:42:31;-20807.34;;;-144.41;100.00
41684;BME280;27369;52.030;4.586;2023-04-21T04:44:57;-20807.34;;;-144.41;100.00
41684;BME280;27369;52.030;4.586;2023-04-21T04:47:23;-20807.34;;;-144.41;100.00
41684;BME280;27369;52.030;4.586;2023-04-21T04:49:49;-20807.34;;;-144.41;100.00
41684;BME280;27369;52.030;4.586;2023-04-21T04:52:14;-20807.34;;;-144.41;100.00
41684;BME280;27369;52.030;4.586;2023-04-21T04:54:39;-20807.34;;;-144.41;100.00
41684;BME280;27369;52.030;4.586;2023-04-21T04:57:05;-20807.34;;;-144.41;100.00
41684;BME280;27369;52.030;4.586;2023-04-21T04:59:30;-20807.34;;;-144.41;100.00
41684;BME280;27369;52.030;4.586;2023-04-21T05:01:56;-20807.34;;;-144.41;100.00
41684;BME280;27369;52.030;4.586;2023-04-21T05:04:22;-20807.34;;;-144.41;100.00
41684;BME280;27369;52.030;4.586;2023-04-21T05:06:47;-20807.34;;;-144.41;100.00
41684;BME280;27369;52.030;4.586;2023-04-21T05:09:12;-20807.34;;;-144.41;100.00
41684;BME280;27369;52.030;4.586;2023-04-21T05:11:38;-20807.34;;;-144.41;100.00
41684;BME280;27369;52.030;4.586;2023-04-21T05:14:03;-20807.34;;;-144.41;100.00
41684;BME280;27369;52.030;4.586;2023-04-21T05:16:29;-20807.34;;;-144.41;100.00
41684;BME280;27369;52.030;4.586;2023-04-21T05:18:54;-20807.34;;;-144.41;100.00
41684;BME280;27369;52.030;4.586;2023-04-21T05:21:26;-20807.34;;;-144.41;100.00
41684;BME280;27369;52.030;4.586;2023-04-21T05:23:56;-20807.34;;;-144.41;100.00
41684;BME280;27369;52.030;4.586;2023-04-21T05:26:25;-20807.34;;;-144.41;100.00
41684;BME280;27369;52.030;4.586;2023-04-21T05:28:52;-20807.34;;;-144.41;100.00
41684;BME280;27369;52.030;4.586;2023-04-21T05:31:18;-20807.34;;;-144.41;100.00
41684;BME280;27369;52.030;4.586;2023-04-21T05:33:43;-20807.34;;;-144.41;100.00
41684;BME280;27369;52.030;4.586;2023-04-21T05:36:09;-20807.34;;;-144.41;100.00
41684;BME280;27369;52.030;4.586;2023-04-21T05:38:35;-20807.34;;;-144.41;100.00
41684;BME280;27369;52.030;4.586;2023-04-21T05:41:02;-20807.34;;;-144.41;100.00
41684;BME280;27369;52.030;4.586;2023-04-21T05:43:27;-20807.34;;;-144.41;100.00
41684;BME280;27369;52.030;4.586;2023-04-21T05:45:53;-20807.34;;;-144.41;100.00
41684;BME280;27369;52.030;4.586;2023-04-21T05:48:18;-20807.34;;;-144.41;100.00
41684;BME280;27369;52.030;4.586;2023-04-21T05:50:44;-20807.34;;;-144.41;100.00
41684;BME280;27369;52.030;4.586;2023-04-21T05:53:09;-20807.34;;;-144.41;100.00
41684;BME280;27369;52.030;4.586;2023-04-21T05:55:35;-20807.34;;;-144.41;100.00
41684;BME280;27369;52.030;4.586;2023-04-21T05:58:01;-20807.34;;;-144.41;100.00
41684;BME280;27369;52.030;4.586;2023-04-21T06:00:28;-20807.34;;;-144.41;100.00
41684;BME280;27369;52.030;4.586;2023-04-21T06:02:53;-20807.34;;;-144.41;100.00
41684;BME280;27369;52.030;4.586;2023-04-21T06:05:19;-20807.34;;;-144.41;100.00
41684;BME280;27369;52.030;4.586;2023-04-21T06:07:44;-20807.34;;;-144.41;100.00
41684;BME280;27369;52.030;4.586;2023-04-21T06:10:11;-20807.34;;;-144.41;100.00
41684;BME280;27369;52.030;4.586;2023-04-21T06:12:37;-20807.34;;;-144.41;100.00
41684;BME280;27369;52.030;4.586;2023-04-21T06:15:02;-20807.34;;;-144.41;100.00
41684;BME280;27369;52.030;4.586;2023-04-21T06:17:56;-20807.34;;;-144.41;100.00
41684;BME280;27369;52.030;4.586;2023-04-21T06:20:41;-20807.34;;;-144.41;100.00
41684;BME280;27369;52.030;4.586;2023-04-21T06:23:06;-20807.34;;;-144.41;100.00
41684;BME280;27369;52.030;4.586;2023-04-21T06:25:33;-20807.34;;;-144.41;100.00
41684;BME280;27369;52.030;4.586;2023-04-21T06:27:59;-20807.34;;;-144.41;100.00
41684;BME280;27369;52.030;4.586;2023-04-21T06:30:24;-20807.34;;;-144.41;100.00
41684;BME280;27369;52.030;4.586;2023-04-21T06:32:50;-20807.34;;;-144.41;100.00
41684;BME280;27369;52.030;4.586;2023-04-21T06:35:15;-20807.34;;;-144.41;100.00
41684;BME280;27369;52.030;4.586;2023-04-21T06:37:41;-20807.34;;;-144.41;100.00
41684;BME280;27369;52.030;4.586;2023-04-21T06:40:07;-20807.34;;;-144.41;100.00
41684;BME280;27369;52.030;4.586;2023-04-21T06:42:32;-20807.34;;;-144.41;100.00
41684;BME280;27369;52.030;4.586;2023-04-21T06:44:58;-20807.34;;;-144.41;100.00
41684;BME280;27369;52.030;4.586;2023-04-21T06:47:23;-20807.34;;;-144.41;100.00
41684;BME280;27369;52.030;4.586;2023-04-21T06:49:48;-20807.34;;;-144.41;100.00
41684;BME280;27369;52.030;4.586;2023-04-21T06:52:14;-20807.34;;;-144.41;100.00
41684;BME280;27369;52.030;4.586;2023-04-21T06:54:39;-20807.34;;;-144.41;100.00
41684;BME280;27369;52.030;4.586;2023-04-21T06:57:05;-20807.34;;;-144.41;100.00
41684;BME280;27369;52.030;4.586;2023-04-21T06:59:31;-20807.34;;;-144.41;100.00
41684;BME280;27369;52.030;4.586;2023-04-21T07:01:57;-20807.34;;;-144.41;100.00
41684;BME280;27369;52.030;4.586;2023-04-21T07:04:22;-20807.34;;;-144.41;100.00
41684;BME280;27369;52.030;4.586;2023-04-21T07:06:48;-20807.34;;;-144.41;100.00
41684;BME280;27369;52.030;4.586;2023-04-21T07:09:13;-20807.34;;;-144.41;100.00
41684;BME280;27369;52.030;4.586;2023-04-21T07:11:39;-20807.34;;;-144.41;100.00
41684;BME280;27369;52.030;4.586;2023-04-21T07:14:04;-20807.34;;;-144.41;100.00
41684;BME280;27369;52.030;4.586;2023-04-21T07:16:30;-20807.34;;;-144.41;100.00
41684;BME280;27369;52.030;4.586;2023-04-21T07:18:56;-20807.34;;;-144.41;100.00
41684;BME280;27369;52.030;4.586;2023-04-21T07:21:22;-20807.34;;;-144.41;100.00
41684;BME280;27369;52.030;4.586;2023-04-21T07:23:47;-20807.34;;;-144.41;100.00
41684;BME280;27369;52.030;4.586;2023-04-21T07:26:12;-20807.34;;;-144.41;100.00
41684;BME280;27369;52.030;4.586;2023-04-21T07:28:38;-20807.34;;;-144.41;100.00
41684;BME280;27369;52.030;4.586;2023-04-21T07:31:05;-20807.34;;;-144.41;100.00
41684;BME280;27369;52.030;4.586;2023-04-21T07:33:31;-20807.34;;;-144.41;100.00
41684;BME280;27369;52.030;4.586;2023-04-21T07:35:56;-20807.34;;;-144.41;100.00
41684;BME280;27369;52.030;4.586;2023-04-21T07:38:22;-20807.34;;;-144.41;100.00
41684;BME280;27369;52.030;4.586;2023-04-21T07:40:47;-20807.34;;;-144.41;100.00
41684;BME280;27369;52.030;4.586;2023-04-21T07:43:12;-20807.34;;;-144.41;100.00
41684;BME280;27369;52.030;4.586;2023-04-21T07:45:38;-20807.34;;;-144.41;100.00
41684;BME280;27369;52.030;4.586;2023-04-21T07:48:03;-20807.34;;;-144.41;100.00
41684;BME280;27369;52.030;4.586;2023-04-21T07:50:32;-20807.34;;;-144.41;100.00
41684;BME280;27369;52.030;4.586;2023-04-21T07:52:57;-20807.34;;;-144.41;100.00
41684;BME280;27369;52.030;4.586;2023-04-21T07:55:22;-20807.34;;;-144.41;100.00
41684;BME280;27369;52.030;4.586;2023-04-21T07:57:48;-20807.34;;;-144.41;100.00
41684;BME280;27369;52.030;4.586;2023-04-21T08:00:14;-20807.34;;;-144.41;100.00
41684;BME280;27369;52.030;4.586;2023-04-21T08:02:40;-20807.34;;;-144.41;100.00
41684;BME280;27369;52.030;4.586;2023-04-21T08:05:06;-20807.34;;;-144.41;100.00
41684;BME280;27369;52.030;4.586;2023-04-21T08:07:31;-20807.34;;;-144.41;100.00
41684;BME280;27369;52.030;4.586;2023-04-21T08:09:57;-20807.34;;;-144.41;100.00
41684;BME280;27369;52.030;4.586;2023-04-21T08:12:22;-20807.34;;;-144.41;100.00
41684;BME280;27369;52.030;4.586;2023-04-21T08:14:48;-20807.34;;;-144.41;100.00
41684;BME280;27369;52.030;4.586;2023-04-21T08:17:13;-20807.34;;;-144.41;100.00
41684;BME280;27369;52.030;4.586;2023-04-21T08:19:39;-20807.34;;;-144.41;100.00
41684;BME280;27369;52.030;4.586;2023-04-21T08:22:04;-20807.34;;;-144.41;100.00
41684;BME280;27369;52.030;4.586;2023-04-21T08:24:29;-20807.34;;;-144.41;100.00
41684;BME280;27369;52.030;4.586;2023-04-21T08:26:55;-20557.19;;;-144.41;100.00
41684;BME280;27369;52.030;4.586;2023-04-21T08:29:22;-17820.44;;;-144.41;100.00
41684;BME280;27369;52.030;4.586;2023-04-21T08:31:47;-14832.66;;;-144.41;100.00
41684;BME280;27369;52.030;4.586;2023-04-21T08:34:13;-13337.91;;;-144.41;100.00
41684;BME280;27369;52.030;4.586;2023-04-21T08:36:38;-11593.28;;;-144.41;100.00
41684;BME280;27369;52.030;4.586;2023-04-21T08:39:05;-10346.63;;;-144.41;100.00
41684;BME280;27369;52.030;4.586;2023-04-21T08:41:31;-7602.59;;;-144.41;100.00
41684;BME280;27369;52.030;4.586;2023-04-21T08:43:56;-6604.25;;;-144.41;100.00
41684;BME280;27369;52.030;4.586;2023-04-21T08:46:22;-6354.63;;;-144.41;100.00
41684;BME280;27369;52.030;4.586;2023-04-21T08:48:48;-6604.25;;;-144.41;100.00
41684;BME280;27369;52.030;4.586;2023-04-21T08:51:19;-6604.25;;;-144.41;100.00
41684;BME280;27369;52.030;4.586;2023-04-21T08:53:45;-5356.00;;;-144.41;100.00
41684;BME280;27369;52.030;4.586;2023-04-21T08:56:10;-358.84;;;-144.41;100.00
41684;BME280;27369;52.030;4.586;2023-04-21T08:58:36;3393.28;;;-144.41;100.00
41684;BME280;27369;52.030;4.586;2023-04-21T09:01:01;5145.50;;;-144.41;100.00
41684;BME280;27369;52.030;4.586;2023-04-21T09:03:28;9404.25;;;-144.41;100.00
41684;BME280;27369;52.030;4.586;2023-04-21T09:06:01;13165.84;;;-144.41;100.00
41684;BME280;27369;52.030;4.586;2023-04-21T09:08:28;19945.94;;;-144.41;100.00
41684;BME280;27369;52.030;4.586;2023-04-21T09:10:55;20197.28;;;-144.41;100.00
41684;BME280;27369;52.030;4.586;2023-04-21T09:13:20;22711.59;;;-144.41;100.00
41684;BME280;27369;52.030;4.586;2023-04-21T09:15:52;24220.97;;;-144.41;100.00
41684;BME280;27369;52.030;4.586;2023-04-21T09:18:23;23214.66;;;-144.41;100.00
41684;BME280;27369;52.030;4.586;2023-04-21T09:20:50;14922.53;;;-144.41;100.00
41684;BME280;27369;52.030;4.586;2023-04-21T09:23:16;6147.16;;;-144.41;100.00
41684;BME280;27369;52.030;4.586;2023-04-21T09:25:43;141.22;;;-144.41;100.00
41684;BME280;27369;52.030;4.586;2023-04-21T09:28:11;-3857.53;;;-144.41;100.00
41684;BME280;27369;52.030;4.586;2023-04-21T09:30:40;-6105.00;;;-144.41;100.00
41684;BME280;27369;52.030;4.586;2023-04-21T09:33:06;-4856.56;;;-144.41;100.00
41684;BME280;27369;52.030;4.586;2023-04-21T09:35:34;-4856.56;;;-144.41;100.00
41684;BME280;27369;52.030;4.586;2023-04-21T09:38:01;891.47;;;-144.41;100.00
41684;BME280;27369;52.030;4.586;2023-04-21T09:40:29;6898.53;;;-144.41;100.00
41684;BME280;27369;52.030;4.586;2023-04-21T09:42:54;69896.81;;;-144.41;100.00
41684;BME280;27369;52.030;4.586;2023-04-21T09:45:22;84627.44;;;-144.41;100.00
41684;BME280;27369;52.030;4.586;2023-04-21T09:47:56;91857.09;;;-144.41;100.00
41684;BME280;27369;52.030;4.586;2023-04-21T09:50:23;100748.56;;;-144.41;100.00
41684;BME280;27369;52.030;4.586;2023-04-21T09:52:50;102390.09;;;-144.41;100.00
41684;BME280;27369;52.030;4.586;2023-04-21T09:55:18;103653.25;;;-144.41;100.00
41684;BME280;27369;52.030;4.586;2023-04-21T09:57:45;103508.84;;;-144.41;100.00
41684;BME280;27369;52.030;4.586;2023-04-21T10:00:13;103765.53;;;-144.41;100.00
41684;BME280;27369;52.030;4.586;2023-04-21T10:02:57;104022.22;;;-144.41;100.00
41684;BME280;27369;52.030;4.586;2023-04-21T10:05:24;103765.53;;;-144.41;100.00
41684;BME280;27369;52.030;4.586;2023-04-21T10:07:50;103765.53;;;-144.41;100.00
41684;BME280;27369;52.030;4.586;2023-04-21T10:10:23;103252.19;;;-144.41;100.00
41684;BME280;27369;52.030;4.586;2023-04-21T10:12:50;102738.91;;;-144.41;100.00
41684;BME280;27369;52.030;4.586;2023-04-21T10:18:20;-20308.47;;;-144.41;100.00
41684;BME280;27369;52.030;4.586;2023-04-21T10:23:45;-20807.34;;;-144.41;100.00
41684;BME280;27369;52.030;4.586;2023-04-21T10:26:12;-20807.34;;;-144.41;100.00
41684;BME280;27369;52.030;4.586;2023-04-21T10:28:51;-20807.34;;;-144.41;100.00
41684;BME280;27369;52.030;4.586;2023-04-21T10:31:36;-19811.00;;;-144.41;100.00
41684;BME280;27369;52.030;4.586;2023-04-21T10:36:31;9654.91;;;-144.41;100.00
41684;BME280;27369;52.030;4.586;2023-04-21T10:39:00;-2858.22;;;-144.41;100.00
41684;BME280;27369;52.030;4.586;2023-04-21T10:41:29;-2608.38;;;-144.41;100.00
41684;BME280;27369;52.030;4.586;2023-04-21T10:44:21;-11842.56;;;-144.41;100.00
41684;BME280;27369;52.030;4.586;2023-04-21T10:46:51;-15828.84;;;-144.41;100.00
41684;BME280;27369;52.030;4.586;2023-04-21T10:49:26;-15828.84;;;-144.41;100.00
41684;BME280;27369;52.030;4.586;2023-04-21T10:57:08;-1858.66;;;-144.41;100.00
41684;BME280;27369;52.030;4.586;2023-04-21T10:59:34;1641.84;;;-144.41;100.00
41684;BME280;27369;52.030;4.586;2023-04-21T11:02:01;4394.44;;;-144.41;100.00
41684;BME280;27369;52.030;4.586;2023-04-21T11:04:27;2892.78;;;-144.41;100.00
41684;BME280;27369;52.030;4.586;2023-04-21T11:07:12;8151.19;;;-144.41;100.00
41684;BME280;27369;52.030;4.586;2023-04-21T11:09:39;21748.91;;;-144.41;100.00
41684;BME280;27369;52.030;4.586;2023-04-21T11:12:09;31195.59;;;-144.41;100.00
41684;BME280;27369;52.030;4.586;2023-04-21T11:14:36;26521.50;;;-144.41;100.00
41684;BME280;27369;52.030;4.586;2023-04-21T11:17:04;20262.09;;;-144.41;100.00
41684;BME280;27369;52.030;4.586;2023-04-21T11:19:32;31032.16;;;-144.41;100.00
41684;BME280;27369;52.030;4.586;2023-04-21T11:21:58;25453.66;;;-144.41;100.00
41684;BME280;27369;52.030;4.586;2023-04-21T11:24:23;33171.22;;;-144.41;100.00
41684;BME280;27369;52.030;4.586;2023-04-21T11:26:50;49097.06;;;-144.41;100.00
41684;BME280;27369;52.030;4.586;2023-04-21T11:29:16;42760.06;;;-144.41;100.00
41684;BME280;27369;52.030;4.586;2023-04-21T11:31:44;23902.53;;;-144.41;100.00
41684;BME280;27369;52.030;4.586;2023-04-21T11:34:10;32345.78;;;-144.41;100.00
41684;BME280;27369;52.030;4.586;2023-04-21T11:36:39;-108.81;;;-144.41;100.00
41684;BME280;27369;52.030;4.586;2023-04-21T11:41:32;14167.59;;;-144.41;100.00
41684;BME280;27369;52.030;4.586;2023-04-21T11:43:58;29610.69;;;-144.41;100.00
41684;BME280;27369;52.030;4.586;2023-04-21T11:46:25;31170.00;;;-144.41;100.00
41684;BME280;27369;52.030;4.586;2023-04-21T11:49:05;-108.81;;;-144.41;100.00
41684;BME280;27369;52.030;4.586;2023-04-21T11:51:35;20593.97;;;-144.41;100.00
41684;BME280;27369;52.030;4.586;2023-04-21T11:54:01;18976.09;;;-144.41;100.00
41684;BME280;27369;52.030;4.586;2023-04-21T11:56:27;22141.81;;;-144.41;100.00
41684;BME280;27369;52.030;4.586;2023-04-21T11:58:52;26472.34;;;-144.41;100.00
41684;BME280;27369;52.030;4.586;2023-04-21T12:01:19;24930.66;;;-144.41;100.00
41684;BME280;27369;52.030;4.586;2023-04-21T12:03:52;26796.88;;;-144.41;100.00
41684;BME280;27369;52.030;4.586;2023-04-21T12:06:22;28296.03;;;-144.41;100.00
41684;BME280;27369;52.030;4.586;2023-04-21T12:08:53;25843.00;;;-144.41;100.00
41684;BME280;27369;52.030;4.586;2023-04-21T12:11:19;27756.91;;;-144.41;100.00
41684;BME280;27369;52.030;4.586;2023-04-21T12:13:44;20267.97;;;-144.41;100.00
41684;BME280;27369;52.030;4.586;2023-04-21T12:16:11;20572.38;;;-144.41;100.00
41684;BME280;27369;52.030;4.586;2023-04-21T12:18:37;22872.72;;;-144.41;100.00
41684;BME280;27369;52.030;4.586;2023-04-21T12:21:02;19965.59;;;-144.41;100.00
41684;BME280;27369;52.030;4.586;2023-04-21T12:23:28;16044.38;;;-144.41;100.00
41684;BME280;27369;52.030;4.586;2023-04-21T12:25:53;16177.78;;;-144.41;100.00
41684;BME280;27369;52.030;4.586;2023-04-21T12:28:19;6338.91;;;-144.41;100.00
41684;BME280;27369;52.030;4.586;2023-04-21T12:30:45;6945.50;;;-144.41;100.00
41684;BME280;27369;52.030;4.586;2023-04-21T12:33:11;3393.28;;;-144.41;100.00
41684;BME280;27369;52.030;4.586;2023-04-21T12:35:36;3893.84;;;-144.41;100.00